Flight Track Log - Related Links

Times and Time Zones

All times are in EDT time to prevent confusion due to time zone crossing. See the DLH2705 flight status page for this flight to view local times or setup timezone preferences in your user account.

Time Position Orientation Groundspeed Altitude Reporting Facility
EDT Latitude Longitude Course Direction KTS MPH feet Rate Location/Type
Tue 02:50:00 AM 53.3842 9.6268 221° Southwest  Level Estimated
Tue 02:51:00 AM 53.3019 9.5072 221° Southwest  Level Estimated
Tue 02:52:00 AM 53.2194 9.3882 221° Southwest  Level Estimated
Tue 02:53:00 AM 53.1369 9.2695 221° Southwest  Level Estimated
Tue 02:54:00 AM 53.0542 9.1513 221° Southwest  Level Estimated
Tue 02:55:00 AM 52.9714 9.0336 221° Southwest  Level Estimated
Tue 02:56:00 AM 52.8885 8.9164 221° Southwest  Level Estimated
Tue 02:57:00 AM 52.8055 8.7995 220° Southwest  Level Estimated
Tue 02:58:00 AM 52.7224 8.6831 220° Southwest  Level Estimated
Tue 02:59:00 AM 52.6391 8.5672 220° Southwest  Level Estimated
Tue 03:00:00 AM 52.5558 8.4517 220° Southwest  Level Estimated
Tue 03:01:00 AM 52.4723 8.3366 220° Southwest  Level Estimated
Tue 03:02:00 AM 52.3887 8.2220 220° Southwest  Level Estimated
Tue 03:03:00 AM 52.3050 8.1078 220° Southwest  Level Estimated
Tue 03:04:00 AM 52.2212 7.9941 220° Southwest  Level Estimated
Tue 03:05:00 AM 52.1373 7.8807 220° Southwest  Level Estimated
Tue 03:06:00 AM 52.0533 7.7678 220° Southwest  Level Estimated
Tue 03:07:00 AM 51.9692 7.6554 219° Southwest  Level Estimated
Tue 03:08:00 AM 51.8849 7.5433 219° Southwest  Level Estimated
Tue 03:09:00 AM 51.8006 7.4317 219° Southwest  Level Estimated
Tue 03:10:00 AM 51.7162 7.3204 219° Southwest  Level Estimated
Tue 03:11:00 AM 51.6316 7.2096 219° Southwest  Level Estimated
Tue 03:12:00 AM 51.5470 7.0992 219° Southwest  Level Estimated
Tue 03:13:00 AM 51.4622 6.9893 219° Southwest  Level Estimated
Tue 03:14:00 AM 51.3773 6.8797 219° Southwest  Level Estimated
Tue 03:15:00 AM 51.2924 6.7705 219° Southwest  Level Estimated
Tue 03:16:00 AM 51.2895 6.7668 219° Southwest  Level Estimated
Tue 03:17:00 AM 51.2895 6.7668 314° West  Level Estimated
Tue 03:18:00 AM 51.2895 6.7668 46° Northeast  Level Estimated
Tue 03:19:00 AM 51.2895 6.7668 314° West  Level Estimated
Tue 03:20:00 AM 51.2895 6.7668 46° Northeast  Level Estimated
Tue 03:21:00 AM 51.2895 6.7668 314° West  Level Estimated
Tue 03:22:00 AM 51.2895 6.7668 46° Northeast  Level Estimated
Tue 03:23:00 AM 51.2895 6.7668 314° West  Level Estimated
Tue 03:24:00 AM 51.2895 6.7668 46° Northeast  Level Estimated
Tue 03:25:00 AM 51.2895 6.7668 314° West  Level Estimated
Tue 03:26:00 AM 51.2895 6.7668 46° Northeast  Level Estimated
Tue 03:27:00 AM 51.2895 6.7668 314° West  Level Estimated
Tue 03:28:00 AM 51.2895 6.7668 46° Northeast  Level Estimated
Tue 03:29:00 AM 51.2895 6.7668 314° West  Level Estimated
Tue 03:30:00 AM 51.2895 6.7668 46° Northeast  Level Estimated
Tue 03:31:00 AM 51.2895 6.7668 314° West  Level Estimated

Login

Don't have an account? Register now (free) for customized features, flight alerts, and more!